createdAt,value
2018-07-19T00:00:49.709Z,18.57
2018-07-19T00:01:49.701Z,18.59
2018-07-19T00:02:49.857Z,18.52
2018-07-19T00:03:49.759Z,18.57
2018-07-19T00:04:49.855Z,18.57
2018-07-19T00:05:49.784Z,18.55
2018-07-19T00:06:49.873Z,18.54
2018-07-19T00:07:49.851Z,18.52
2018-07-19T00:08:49.962Z,18.50
2018-07-19T00:09:49.889Z,18.49
2018-07-19T00:10:49.984Z,18.42
2018-07-19T00:11:49.907Z,18.49
2018-07-19T00:12:49.997Z,18.46
2018-07-19T00:13:49.945Z,18.50
2018-07-19T00:14:50.005Z,18.46
2018-07-19T00:15:50.014Z,18.42
2018-07-19T00:16:50.121Z,18.39
2018-07-19T00:17:50.047Z,18.44
2018-07-19T00:18:50.187Z,18.40
2018-07-19T00:19:50.091Z,18.39
2018-07-19T00:20:50.109Z,18.34
2018-07-19T00:21:50.130Z,18.31
2018-07-19T00:22:50.271Z,18.33
2018-07-19T00:23:50.160Z,18.31
2018-07-19T00:24:51.310Z,18.28
2018-07-19T00:25:50.217Z,18.28
2018-07-19T00:26:50.307Z,18.28
2018-07-19T00:27:50.256Z,18.28
2018-07-19T00:28:50.296Z,18.25
2018-07-19T00:29:50.304Z,18.29
2018-07-19T00:30:50.423Z,18.29
2018-07-19T00:31:50.329Z,18.19
2018-07-19T00:32:50.386Z,18.24
2018-07-19T00:33:50.422Z,18.25
2018-07-19T00:34:50.494Z,18.13
2018-07-19T00:35:50.438Z,18.13
2018-07-19T00:36:50.529Z,18.17
2018-07-19T00:37:50.461Z,18.15
2018-07-19T00:38:50.537Z,18.12
2018-07-19T00:39:50.488Z,18.03
2018-07-19T00:40:50.535Z,18.21
2018-07-19T00:41:50.543Z,17.95
2018-07-19T00:42:50.679Z,18.07
2018-07-19T00:43:50.593Z,18.10
2018-07-19T00:44:50.666Z,17.97
2018-07-19T00:45:50.641Z,18.18
2018-07-19T00:46:50.691Z,18.04
2018-07-19T00:47:50.679Z,18.03
2018-07-19T00:48:50.806Z,17.99
2018-07-19T00:49:50.718Z,18.04
2018-07-19T00:50:50.825Z,17.99
2018-07-19T00:51:50.757Z,18.02
2018-07-19T00:52:50.846Z,18.03
2018-07-19T00:53:50.796Z,17.99
2018-07-19T00:54:50.857Z,17.97
2018-07-19T00:55:50.851Z,17.91
2018-07-19T00:56:50.962Z,17.82
2018-07-19T00:57:50.863Z,17.88
2018-07-19T00:58:50.971Z,17.85
2018-07-19T00:59:50.937Z,17.91
2018-07-19T01:00:50.983Z,17.82
2018-07-19T01:01:50.954Z,17.79
2018-07-19T01:02:51.035Z,17.85
2018-07-19T01:03:51.003Z,17.79
2018-07-19T01:04:51.113Z,17.84
2018-07-19T01:05:51.058Z,17.79
2018-07-19T01:06:51.141Z,17.73
2018-07-19T01:07:51.095Z,17.70
2018-07-19T01:08:51.139Z,17.78
2018-07-19T01:09:51.138Z,17.71
2018-07-19T01:10:51.261Z,17.76
2018-07-19T01:11:51.165Z,17.62
2018-07-19T01:12:51.292Z,17.66
2018-07-19T01:13:51.223Z,17.62
2018-07-19T01:14:51.304Z,17.63
2018-07-19T01:15:51.247Z,17.53
2018-07-19T01:16:51.304Z,17.48
2018-07-19T01:17:51.291Z,17.47
2018-07-19T01:18:51.440Z,17.47
2018-07-19T01:19:51.378Z,17.35
2018-07-19T01:20:51.428Z,17.41
2018-07-19T01:21:51.374Z,17.43
2018-07-19T01:22:51.467Z,17.33
2018-07-19T01:23:51.427Z,17.25
2018-07-19T01:24:51.499Z,17.30
2018-07-19T01:25:51.472Z,17.26
2018-07-19T01:26:51.589Z,17.22
2018-07-19T01:27:51.524Z,17.17
2018-07-19T01:28:51.587Z,17.15
2018-07-19T01:29:51.536Z,17.04
2018-07-19T01:30:51.611Z,17.11
2018-07-19T01:31:51.583Z,17.06
2018-07-19T01:32:51.728Z,17.07
2018-07-19T01:33:51.628Z,17.00
2018-07-19T01:34:51.738Z,17.08
2018-07-19T01:35:51.669Z,17.04
2018-07-19T01:36:51.759Z,17.06
2018-07-19T01:37:51.706Z,17.00
2018-07-19T01:38:51.769Z,17.06
2018-07-19T01:39:51.760Z,16.96
2018-07-19T01:40:51.884Z,17.04
2018-07-19T01:41:51.790Z,17.00
2018-07-19T01:42:51.890Z,16.95
2018-07-19T01:43:51.844Z,16.96
2018-07-19T01:44:51.905Z,16.96
2018-07-19T01:45:51.887Z,16.99
2018-07-19T01:46:51.919Z,16.98
2018-07-19T01:47:51.917Z,16.88
2018-07-19T01:48:52.029Z,16.92
2018-07-19T01:49:51.965Z,16.85
2018-07-19T01:50:53.017Z,16.83
2018-07-19T01:51:52.006Z,16.86
2018-07-19T01:52:52.112Z,16.88
2018-07-19T01:53:52.032Z,16.98
2018-07-19T01:54:52.114Z,16.88
2018-07-19T01:55:54.743Z,16.78
2018-07-19T01:56:52.122Z,16.83
2018-07-19T01:57:52.123Z,16.81
2018-07-19T01:58:52.250Z,16.77
2018-07-19T01:59:52.165Z,16.85
2018-07-19T02:00:52.246Z,16.81
2018-07-19T02:01:52.211Z,16.81
2018-07-19T02:02:52.276Z,16.83
2018-07-19T02:03:52.253Z,16.81
2018-07-19T02:04:52.282Z,16.80
2018-07-19T02:05:52.293Z,16.80
2018-07-19T02:06:52.422Z,16.81
2018-07-19T02:07:52.330Z,16.81
2018-07-19T02:08:52.461Z,16.80
2018-07-19T02:09:52.381Z,16.80
2018-07-19T02:10:53.503Z,16.77
2018-07-19T02:11:52.399Z,16.70
2018-07-19T02:12:52.478Z,16.75
2018-07-19T02:13:52.444Z,16.75
2018-07-19T02:14:52.479Z,16.68
2018-07-19T02:15:52.477Z,16.62
2018-07-19T02:16:52.603Z,16.56
2018-07-19T02:17:52.527Z,16.56
2018-07-19T02:18:53.644Z,16.49
2018-07-19T02:19:52.563Z,16.49
2018-07-19T02:20:53.656Z,16.38
2018-07-19T02:21:52.630Z,16.41
2018-07-19T02:22:52.645Z,16.34
2018-07-19T02:23:52.639Z,16.31
2018-07-19T02:24:52.768Z,16.34
2018-07-19T02:25:52.688Z,16.38
2018-07-19T02:26:52.774Z,16.27
2018-07-19T02:27:52.750Z,16.38
2018-07-19T02:28:52.798Z,16.26
2018-07-19T02:29:52.799Z,16.27
2018-07-19T02:30:52.889Z,16.33
2018-07-19T02:31:52.816Z,16.40
2018-07-19T02:32:52.914Z,16.31
2018-07-19T02:33:52.847Z,16.35
2018-07-19T02:34:52.924Z,16.27
2018-07-19T02:35:52.912Z,16.34
2018-07-19T02:36:52.948Z,16.34
2018-07-19T02:37:52.931Z,16.31
2018-07-19T02:38:52.982Z,16.31
2018-07-19T02:39:52.971Z,16.27
2018-07-19T02:40:53.073Z,16.16
2018-07-19T02:41:53.059Z,16.11
2018-07-19T02:42:53.095Z,16.16
2018-07-19T02:43:53.101Z,16.09
2018-07-19T02:44:53.103Z,16.06
2018-07-19T02:45:53.095Z,16.00
2018-07-19T02:46:53.227Z,16.00
2018-07-19T02:47:53.122Z,15.97
2018-07-19T02:48:54.265Z,15.99
2018-07-19T02:49:53.180Z,16.03
2018-07-19T02:50:53.244Z,15.93
2018-07-19T02:51:53.209Z,15.96
2018-07-19T02:52:53.267Z,15.97
2018-07-19T02:53:53.265Z,15.84
2018-07-19T02:54:53.388Z,15.85
2018-07-19T02:55:53.314Z,15.82
2018-07-19T02:56:54.415Z,15.86
2018-07-19T02:57:53.338Z,15.82
2018-07-19T02:58:53.400Z,15.86
2018-07-19T02:59:53.380Z,15.76
2018-07-19T03:00:55.486Z,15.74
2018-07-19T03:01:53.417Z,15.76
2018-07-19T03:02:53.527Z,15.74
2018-07-19T03:03:53.468Z,15.70
2018-07-19T03:04:53.553Z,15.70
2018-07-19T03:05:53.494Z,15.60
2018-07-19T03:06:53.558Z,15.72
2018-07-19T03:07:53.561Z,15.66
2018-07-19T03:08:54.627Z,15.54
2018-07-19T03:09:53.588Z,15.56
2018-07-19T03:10:54.619Z,15.48
2018-07-19T03:11:53.636Z,15.56
2018-07-19T03:12:53.710Z,15.57
2018-07-19T03:13:53.654Z,15.54
2018-07-19T03:14:53.705Z,15.57
2018-07-19T03:15:53.722Z,15.61
2018-07-19T03:16:53.741Z,15.60
2018-07-19T03:17:53.765Z,15.59
2018-07-19T03:18:53.853Z,15.54
2018-07-19T03:19:53.784Z,15.61
2018-07-19T03:20:54.917Z,15.52
2018-07-19T03:21:53.826Z,15.54
2018-07-19T03:22:54.938Z,15.54
2018-07-19T03:23:53.873Z,15.39
2018-07-19T03:24:54.924Z,15.51
2018-07-19T03:25:53.903Z,15.52
2018-07-19T03:26:54.014Z,15.46
2018-07-19T03:27:53.943Z,15.38
2018-07-19T03:28:54.031Z,15.39
2018-07-19T03:29:53.991Z,15.43
2018-07-19T03:30:55.086Z,15.39
2018-07-19T03:31:54.033Z,15.39
2018-07-19T03:32:55.078Z,15.41
2018-07-19T03:33:54.066Z,15.41
2018-07-19T03:34:54.174Z,15.36
2018-07-19T03:35:54.105Z,15.43
2018-07-19T03:36:55.198Z,15.39
2018-07-19T03:37:54.163Z,15.39
2018-07-19T03:38:54.275Z,15.48
2018-07-19T03:39:54.179Z,15.48
2018-07-19T03:40:54.263Z,15.51
2018-07-19T03:41:54.226Z,15.51
2018-07-19T03:42:54.274Z,15.45
2018-07-19T03:43:54.252Z,15.49
2018-07-19T03:44:54.399Z,15.46
2018-07-19T03:45:54.304Z,15.41
2018-07-19T03:46:55.425Z,15.48
2018-07-19T03:47:54.336Z,15.49
2018-07-19T03:48:54.427Z,15.41
2018-07-19T03:49:54.387Z,15.48
2018-07-19T03:50:54.438Z,15.49
2018-07-19T03:51:54.433Z,15.49
2018-07-19T03:52:55.509Z,15.43
2018-07-19T03:53:54.453Z,15.49
2018-07-19T03:54:54.575Z,15.59
2018-07-19T03:55:54.489Z,15.48
2018-07-19T03:56:54.589Z,15.46
2018-07-19T03:57:54.554Z,15.43
2018-07-19T03:58:54.602Z,15.43
2018-07-19T03:59:54.590Z,15.49
2018-07-19T04:00:54.616Z,15.56
2018-07-19T04:01:54.647Z,15.49
2018-07-19T04:02:55.782Z,15.45
2018-07-19T04:03:54.656Z,15.52
2018-07-19T04:04:54.704Z,15.56
2018-07-19T04:05:54.709Z,15.54
2018-07-19T04:06:54.838Z,15.52
2018-07-19T04:07:54.752Z,15.46
2018-07-19T04:08:54.840Z,15.57
2018-07-19T04:09:54.820Z,15.60
2018-07-19T04:10:54.858Z,15.64
2018-07-19T04:11:54.825Z,15.72
2018-07-19T04:12:54.890Z,15.66
2018-07-19T04:13:54.858Z,15.74
2018-07-19T04:14:54.969Z,15.72
2018-07-19T04:15:54.918Z,15.68
2018-07-19T04:16:54.987Z,15.74
2018-07-19T04:17:54.943Z,15.78
2018-07-19T04:18:55.000Z,15.72
2018-07-19T04:19:54.988Z,15.79
2018-07-19T04:20:55.104Z,15.84
2018-07-19T04:21:55.014Z,15.79
2018-07-19T04:22:55.125Z,15.81
2018-07-19T04:23:55.062Z,15.88
2018-07-19T04:24:55.134Z,15.81
2018-07-19T04:25:55.102Z,15.85
2018-07-19T04:26:56.216Z,15.85
2018-07-19T04:27:55.137Z,15.92
2018-07-19T04:28:56.209Z,16.00
2018-07-19T04:29:55.169Z,15.94
2018-07-19T04:30:56.307Z,16.00
2018-07-19T04:31:55.217Z,15.94
2018-07-19T04:32:55.319Z,15.99
2018-07-19T04:33:55.247Z,16.09
2018-07-19T04:34:55.305Z,16.14
2018-07-19T04:35:55.296Z,16.15
2018-07-19T04:36:55.440Z,16.14
2018-07-19T04:37:55.327Z,16.15
2018-07-19T04:38:55.450Z,16.20
2018-07-19T04:39:55.370Z,16.14
2018-07-19T04:40:56.478Z,16.22
2018-07-19T04:41:55.417Z,16.22
2018-07-19T04:42:55.466Z,16.26
2018-07-19T04:43:55.444Z,16.27
2018-07-19T04:44:56.499Z,16.31
2018-07-19T04:45:55.508Z,16.31
2018-07-19T04:46:55.579Z,16.35
2018-07-19T04:47:55.538Z,16.23
2018-07-19T04:48:56.630Z,16.33
2018-07-19T04:49:55.599Z,16.35
2018-07-19T04:50:55.748Z,16.35
2018-07-19T04:51:55.624Z,16.37
2018-07-19T04:52:55.714Z,16.33
2018-07-19T04:53:55.662Z,16.38
2018-07-19T04:54:55.736Z,16.42
2018-07-19T04:55:55.796Z,16.55
2018-07-19T04:56:55.736Z,16.53
2018-07-19T04:57:55.900Z,16.65
2018-07-19T04:58:55.750Z,16.77
2018-07-19T04:59:55.854Z,16.88
2018-07-19T05:00:55.797Z,16.89
2018-07-19T05:01:55.887Z,16.98
2018-07-19T05:02:55.833Z,17.04
2018-07-19T05:03:55.895Z,16.92
2018-07-19T05:04:55.877Z,17.03
2018-07-19T05:05:55.988Z,17.10
2018-07-19T05:06:55.901Z,17.17
2018-07-19T05:07:57.043Z,17.20
2018-07-19T05:08:55.961Z,17.18
2018-07-19T05:09:56.032Z,17.25
2018-07-19T05:10:55.990Z,17.15
2018-07-19T05:11:56.046Z,17.29
2018-07-19T05:12:56.033Z,17.33
2018-07-19T05:13:58.135Z,17.47
2018-07-19T05:14:56.064Z,17.44
2018-07-19T05:15:57.105Z,17.51
2018-07-19T05:16:56.123Z,17.44
2018-07-19T05:17:56.176Z,17.51
2018-07-19T05:18:56.157Z,17.70
2018-07-19T05:19:56.196Z,17.63
2018-07-19T05:20:56.174Z,17.79
2018-07-19T05:21:56.315Z,17.67
2018-07-19T05:22:56.253Z,17.74
2018-07-19T05:23:57.369Z,17.79
2018-07-19T05:24:56.280Z,17.81
2018-07-19T05:25:56.330Z,17.97
2018-07-19T05:26:56.297Z,18.00
2018-07-19T05:27:56.357Z,18.07
2018-07-19T05:28:56.351Z,18.07
2018-07-19T05:29:56.474Z,18.10
2018-07-19T05:30:56.384Z,18.18
2018-07-19T05:31:56.493Z,18.03
2018-07-19T05:32:56.438Z,18.10
2018-07-19T05:33:56.469Z,18.19
2018-07-19T05:34:56.448Z,18.19
2018-07-19T05:35:57.496Z,18.15
2018-07-19T05:36:56.491Z,18.12
2018-07-19T05:37:56.626Z,18.19
2018-07-19T05:38:56.562Z,18.15
2018-07-19T05:39:56.647Z,18.17
2018-07-19T05:40:56.606Z,18.25
2018-07-19T05:41:56.678Z,18.27
2018-07-19T05:42:56.612Z,18.34
2018-07-19T05:43:56.671Z,18.47
2018-07-19T05:44:56.649Z,18.50
2018-07-19T05:45:56.789Z,18.55
2018-07-19T05:46:56.699Z,18.68
2018-07-19T05:47:56.806Z,18.77
2018-07-19T05:48:56.737Z,18.80
2018-07-19T05:49:56.812Z,18.87
2018-07-19T05:50:56.780Z,19.10
2018-07-19T05:51:56.862Z,19.17
2018-07-19T05:52:56.809Z,19.33
2018-07-19T05:53:56.938Z,19.51
2018-07-19T05:54:56.868Z,19.55
2018-07-19T05:55:56.900Z,19.70
2018-07-19T05:56:56.897Z,19.75
2018-07-19T05:57:57.644Z,19.76
2018-07-19T05:58:56.989Z,19.91
2018-07-19T05:59:56.991Z,20.06
2018-07-19T06:00:57.011Z,20.12
2018-07-19T06:01:57.110Z,20.20
2018-07-19T06:02:57.017Z,20.28
2018-07-19T06:03:57.102Z,20.38
2018-07-19T06:04:57.057Z,20.38
2018-07-19T06:05:57.117Z,20.42
2018-07-19T06:06:57.150Z,20.49
2018-07-19T06:07:57.142Z,20.54
2018-07-19T06:08:57.131Z,20.62
2018-07-19T06:09:57.269Z,20.58
2018-07-19T06:10:57.187Z,20.66
2018-07-19T06:11:57.287Z,20.80
2018-07-19T06:12:57.210Z,20.80
2018-07-19T06:13:58.306Z,20.91
2018-07-19T06:14:57.240Z,21.08
2018-07-19T06:15:57.330Z,21.05
2018-07-19T06:16:57.304Z,21.20
2018-07-19T06:17:57.385Z,21.29
2018-07-19T06:18:57.315Z,21.32
2018-07-19T06:19:59.449Z,21.32
2018-07-19T06:20:57.368Z,21.39
2018-07-19T06:21:57.481Z,21.45
2018-07-19T06:22:57.406Z,21.44
2018-07-19T06:23:57.488Z,21.39
2018-07-19T06:24:57.431Z,21.29
2018-07-19T06:25:57.493Z,21.13
2018-07-19T06:26:57.485Z,21.08
2018-07-19T06:27:57.599Z,21.17
2018-07-19T06:28:57.542Z,21.27
2018-07-19T06:29:57.635Z,21.34
2018-07-19T06:30:57.555Z,21.38
2018-07-19T06:31:57.643Z,21.48
2018-07-19T06:32:57.626Z,21.51
2018-07-19T06:33:57.721Z,21.44
2018-07-19T06:34:57.646Z,21.60
2018-07-19T06:35:57.735Z,21.56
2018-07-19T06:36:57.683Z,21.74
2018-07-19T06:37:57.754Z,21.90
2018-07-19T06:38:57.712Z,21.90
2018-07-19T06:39:57.807Z,21.95
2018-07-19T06:40:57.772Z,22.06
2018-07-19T06:41:57.815Z,22.02
2018-07-19T06:42:57.822Z,22.07
2018-07-19T06:43:57.899Z,22.16
2018-07-19T06:44:57.827Z,22.16
2018-07-19T06:45:57.928Z,22.13
2018-07-19T06:46:57.885Z,22.17
2018-07-19T06:47:57.975Z,22.14
2018-07-19T06:48:57.912Z,22.17
2018-07-19T06:49:58.054Z,22.19
2018-07-19T06:50:57.953Z,22.20
2018-07-19T06:51:58.061Z,22.23
2018-07-19T06:52:57.999Z,22.25
2018-07-19T06:53:58.072Z,22.28
2018-07-19T06:54:58.039Z,22.38
2018-07-19T06:55:58.052Z,22.41
2018-07-19T06:56:58.076Z,22.39
2018-07-19T06:57:58.198Z,22.37
2018-07-19T06:58:58.107Z,22.38
2018-07-19T06:59:58.245Z,22.49
2018-07-19T07:00:58.160Z,22.52
2018-07-19T07:01:58.229Z,22.59
2018-07-19T07:02:58.184Z,22.56
2018-07-19T07:03:58.261Z,22.69
2018-07-19T07:04:58.281Z,22.77
2018-07-19T07:05:58.314Z,22.80
2018-07-19T07:06:58.309Z,22.87
2018-07-19T07:07:58.290Z,22.93
2018-07-19T07:08:58.369Z,23.05
2018-07-19T07:09:58.449Z,23.08
2018-07-19T07:10:58.337Z,23.27
2018-07-19T07:11:58.451Z,23.29
2018-07-19T07:12:58.430Z,23.43
2018-07-19T07:13:58.471Z,23.50
2018-07-19T07:14:58.433Z,23.58
2018-07-19T07:15:58.474Z,23.62
2018-07-19T07:16:58.479Z,23.67
2018-07-19T07:17:58.487Z,23.72
2018-07-19T07:18:58.582Z,23.75
2018-07-19T07:19:58.520Z,23.82
2018-07-19T07:20:58.533Z,23.77
2018-07-19T07:21:58.611Z,23.92
2018-07-19T07:22:58.593Z,23.94
2018-07-19T07:23:58.593Z,24.16
2018-07-19T07:24:58.626Z,24.16
2018-07-19T07:25:58.641Z,24.27
2018-07-19T07:26:58.650Z,24.34
2018-07-19T07:27:58.679Z,24.41
2018-07-19T07:28:58.697Z,24.50
2018-07-19T07:29:58.863Z,24.67
2018-07-19T07:30:58.736Z,24.63
2018-07-19T07:31:58.823Z,24.71
2018-07-19T07:32:58.778Z,24.71
2018-07-19T07:33:59.886Z,24.75
2018-07-19T07:34:58.853Z,24.61
2018-07-19T07:35:58.908Z,24.63
2018-07-19T07:36:58.851Z,24.67
2018-07-19T07:37:58.950Z,24.69
2018-07-19T07:38:58.933Z,24.71
2018-07-19T07:39:58.953Z,24.73
2018-07-19T07:40:58.954Z,24.69
2018-07-19T07:41:59.094Z,24.82
2018-07-19T07:43:59.095Z,24.76
2018-07-19T07:44:59.075Z,24.85
2018-07-19T07:45:59.091Z,24.83
2018-07-19T07:46:59.065Z,24.90
2018-07-19T07:47:59.100Z,25.00
2018-07-19T07:48:59.087Z,25.01
2018-07-19T07:49:59.214Z,24.97
2018-07-19T07:50:59.147Z,25.15
2018-07-19T07:51:59.213Z,25.12
2018-07-19T07:52:59.169Z,25.16
2018-07-19T07:53:59.212Z,25.09
2018-07-19T07:54:59.237Z,25.12
2018-07-19T07:55:59.216Z,25.20
2018-07-19T07:56:59.352Z,25.17
2018-07-19T07:57:59.279Z,25.20
2018-07-19T07:58:59.363Z,25.25
2018-07-19T07:59:59.302Z,25.30
2018-07-19T08:00:59.388Z,25.32
2018-07-19T08:01:59.339Z,25.38
2018-07-19T08:02:59.409Z,25.46
2018-07-19T08:03:59.410Z,25.46
2018-07-19T08:04:59.514Z,25.46
2018-07-19T08:05:59.436Z,25.50
2018-07-19T08:06:59.533Z,25.59
2018-07-19T08:07:59.467Z,25.59
2018-07-19T08:08:59.550Z,25.68
2018-07-19T08:09:59.510Z,25.75
2018-07-19T08:10:59.553Z,25.72
2018-07-19T08:11:59.544Z,25.71
2018-07-19T08:12:59.671Z,25.83
2018-07-19T08:13:59.595Z,25.77
2018-07-19T08:15:01.740Z,25.72
2018-07-19T08:15:59.643Z,25.79
2018-07-19T08:16:59.705Z,25.75
2018-07-19T08:17:59.666Z,25.83
2018-07-19T08:18:59.705Z,25.90
2018-07-19T08:19:59.713Z,25.93
2018-07-19T08:20:59.756Z,26.08
2018-07-19T08:21:59.734Z,26.17
2018-07-19T08:22:59.838Z,26.18
2018-07-19T08:23:59.790Z,26.12
2018-07-19T08:24:59.868Z,26.27
2018-07-19T08:25:59.843Z,26.42
2018-07-19T08:26:59.984Z,26.40
2018-07-19T08:27:59.859Z,26.49
2018-07-19T08:28:59.933Z,26.64
2018-07-19T08:29:59.993Z,26.64
2018-07-19T08:30:59.941Z,26.69
2018-07-19T08:32:00.005Z,26.68
2018-07-19T08:32:59.962Z,26.68
2018-07-19T08:34:00.013Z,26.81
2018-07-19T08:35:00.008Z,26.69
2018-07-19T08:36:00.197Z,26.86
2018-07-19T08:37:00.050Z,26.81
2018-07-19T08:38:00.146Z,26.81
2018-07-19T08:39:00.079Z,26.95
2018-07-19T08:40:00.211Z,26.95
2018-07-19T08:41:00.160Z,26.91
2018-07-19T08:42:00.232Z,26.95
2018-07-19T08:43:00.164Z,26.98
2018-07-19T08:44:00.255Z,26.98
2018-07-19T08:45:00.211Z,27.04
2018-07-19T08:46:00.280Z,27.09
2018-07-19T08:47:00.270Z,27.14
2018-07-19T08:48:00.395Z,27.19
2018-07-19T08:49:00.310Z,27.21
2018-07-19T08:50:00.381Z,27.26
2018-07-19T08:51:00.335Z,27.32
2018-07-19T08:52:00.396Z,27.32
2018-07-19T08:53:00.378Z,27.33
2018-07-19T08:54:00.421Z,27.31
2018-07-19T08:55:00.543Z,27.32
2018-07-19T08:56:01.516Z,27.43
2018-07-19T08:57:00.539Z,27.48
2018-07-19T08:58:00.486Z,27.54
2018-07-19T08:59:00.543Z,27.50
2018-07-19T09:00:00.552Z,27.53
2018-07-19T09:01:00.563Z,27.54
2018-07-19T09:02:00.557Z,27.51
2018-07-19T09:03:00.668Z,27.58
2018-07-19T09:04:00.586Z,27.53
2018-07-19T09:05:00.681Z,27.54
2018-07-19T09:06:00.631Z,27.57
2018-07-19T09:07:00.688Z,27.47
2018-07-19T09:08:00.675Z,27.42
2018-07-19T09:09:00.718Z,27.35
2018-07-19T09:10:00.732Z,27.39
2018-07-19T09:11:00.862Z,27.35
2018-07-19T09:12:00.768Z,27.32
2018-07-19T09:13:00.844Z,27.26
2018-07-19T09:14:00.806Z,27.33
2018-07-19T09:15:00.859Z,27.21
2018-07-19T09:16:00.858Z,27.20
2018-07-19T09:17:00.869Z,27.06
2018-07-19T09:18:00.887Z,27.02
2018-07-19T09:19:00.995Z,26.94
2018-07-19T09:20:00.928Z,26.92
2018-07-19T09:21:00.943Z,26.89
2018-07-19T09:22:00.996Z,26.84
2018-07-19T09:23:01.017Z,26.79
2018-07-19T09:24:01.003Z,26.81
2018-07-19T09:25:01.043Z,26.81
2018-07-19T09:26:01.139Z,26.79
2018-07-19T09:27:01.072Z,26.81
2018-07-19T09:28:01.094Z,26.79
2018-07-19T09:29:01.106Z,26.84
2018-07-19T09:30:01.122Z,26.76
2018-07-19T09:31:01.157Z,26.86
2018-07-19T09:32:01.335Z,26.84
2018-07-19T09:33:01.292Z,26.83
2018-07-19T09:34:01.218Z,26.80
2018-07-19T09:35:01.233Z,26.80
2018-07-19T09:36:01.252Z,26.74
2018-07-19T09:37:01.486Z,26.84
2018-07-19T09:38:01.323Z,26.81
2018-07-19T09:39:01.328Z,26.86
2018-07-19T09:40:01.445Z,26.83
2018-07-19T09:41:01.354Z,26.94
2018-07-19T09:42:01.585Z,26.91
2018-07-19T09:43:01.421Z,26.98
2018-07-19T09:44:01.419Z,26.89
2018-07-19T09:45:01.450Z,27.02
2018-07-19T09:46:01.485Z,26.91
2018-07-19T09:47:01.493Z,26.89
2018-07-19T09:48:01.522Z,27.02
2018-07-19T09:49:01.708Z,27.01
2018-07-19T09:50:01.556Z,27.10
2018-07-19T09:51:01.741Z,27.23
2018-07-19T09:52:01.604Z,27.20
2018-07-19T09:53:01.706Z,27.16
2018-07-19T09:54:01.671Z,27.20
2018-07-19T09:55:01.708Z,27.23
2018-07-19T09:56:01.680Z,27.29
2018-07-19T09:57:02.861Z,27.38
2018-07-19T09:58:01.728Z,27.32
2018-07-19T09:59:01.752Z,27.33
2018-07-19T10:00:01.759Z,27.32
2018-07-19T10:01:02.873Z,27.35
2018-07-19T10:02:01.823Z,27.39
2018-07-19T10:03:01.964Z,27.46
2018-07-19T10:04:01.857Z,27.53
2018-07-19T10:05:01.879Z,27.59
2018-07-19T10:06:01.905Z,27.61
2018-07-19T10:07:01.994Z,27.71
2018-07-19T10:08:01.942Z,27.76
2018-07-19T10:09:02.027Z,27.69
2018-07-19T10:10:02.078Z,27.70
2018-07-19T10:11:02.128Z,27.54
2018-07-19T10:12:02.058Z,27.42
2018-07-19T10:13:02.139Z,27.43
2018-07-19T10:14:02.061Z,27.38
2018-07-19T10:15:02.151Z,27.32
2018-07-19T10:16:02.106Z,27.33
2018-07-19T10:17:02.127Z,27.32
2018-07-19T10:18:02.153Z,27.36
2018-07-19T10:19:02.169Z,27.35
2018-07-19T10:20:02.204Z,27.31
2018-07-19T10:21:02.239Z,27.36
2018-07-19T10:22:02.245Z,27.43
2018-07-19T10:23:02.411Z,27.59
2018-07-19T10:24:02.269Z,27.58
2018-07-19T10:25:02.421Z,27.76
2018-07-19T10:26:02.328Z,27.91
2018-07-19T10:27:02.435Z,27.89
2018-07-19T10:28:02.361Z,27.96
2018-07-19T10:29:02.451Z,28.09
2018-07-19T10:30:02.411Z,28.06
2018-07-19T10:31:02.577Z,27.98
2018-07-19T10:32:02.523Z,27.94
2018-07-19T10:33:02.583Z,27.96
2018-07-19T10:34:02.569Z,28.03
2018-07-19T10:35:02.596Z,27.96
2018-07-19T10:36:02.557Z,28.06
2018-07-19T10:37:02.730Z,28.19
2018-07-19T10:38:02.600Z,28.25
2018-07-19T10:39:02.614Z,28.38
2018-07-19T10:40:02.639Z,28.29
2018-07-19T10:41:02.725Z,28.38
2018-07-19T10:42:02.678Z,28.47
2018-07-19T10:43:02.884Z,28.54
2018-07-19T10:44:02.724Z,28.58
2018-07-19T10:45:02.723Z,28.69
2018-07-19T10:46:02.780Z,28.72
2018-07-19T10:47:02.868Z,28.80
2018-07-19T10:48:02.795Z,28.66
2018-07-19T10:49:02.891Z,28.72
2018-07-19T10:50:02.836Z,28.75
2018-07-19T10:51:02.997Z,28.70
2018-07-19T10:52:02.907Z,28.66
2018-07-19T10:53:04.039Z,28.75
2018-07-19T10:54:02.957Z,28.77
2018-07-19T10:55:03.080Z,28.84
2018-07-19T10:56:02.977Z,28.68
2018-07-19T10:57:03.146Z,28.63
2018-07-19T10:58:03.030Z,28.75
2018-07-19T10:59:03.202Z,28.96
2018-07-19T11:00:03.079Z,29.16
2018-07-19T11:01:03.159Z,29.34
2018-07-19T11:02:03.111Z,29.62
2018-07-19T11:03:03.263Z,29.87
2018-07-19T11:04:03.184Z,29.96
2018-07-19T11:05:04.320Z,30.02
2018-07-19T11:06:03.200Z,30.02
2018-07-19T11:07:03.322Z,30.05
2018-07-19T11:08:03.256Z,30.07
2018-07-19T11:09:03.436Z,30.08
2018-07-19T11:10:03.308Z,29.97
2018-07-19T11:11:03.448Z,30.11
2018-07-19T11:12:03.352Z,30.15
2018-07-19T11:13:03.365Z,29.97
2018-07-19T11:14:03.468Z,29.89
2018-07-19T11:15:03.411Z,29.78
2018-07-19T11:16:03.571Z,29.87
2018-07-19T11:17:03.467Z,29.74
2018-07-19T11:18:03.597Z,29.49
2018-07-19T11:19:03.509Z,29.43
2018-07-19T11:20:03.609Z,29.47
2018-07-19T11:21:03.554Z,29.56
2018-07-19T11:22:03.725Z,29.70
2018-07-19T11:23:03.601Z,29.74
2018-07-19T11:24:03.747Z,29.89
2018-07-19T11:25:03.645Z,30.05
2018-07-19T11:26:03.756Z,30.18
2018-07-19T11:27:03.684Z,30.18
2018-07-19T11:28:03.880Z,29.99
2018-07-19T11:29:03.722Z,29.89
2018-07-19T11:30:03.897Z,29.75
2018-07-19T11:31:03.775Z,29.72
2018-07-19T11:32:03.900Z,29.77
2018-07-19T11:33:03.809Z,29.86
2018-07-19T11:34:04.042Z,29.90
2018-07-19T11:35:03.855Z,29.86
2018-07-19T11:36:08.511Z,30.00
2018-07-19T11:37:03.915Z,30.08
2018-07-19T11:38:04.020Z,29.92
2018-07-19T11:39:03.953Z,29.93
2018-07-19T11:40:04.021Z,30.07
2018-07-19T11:41:04.004Z,30.16
2018-07-19T11:42:06.085Z,30.29
2018-07-19T11:43:04.092Z,30.23
2018-07-19T11:44:08.975Z,30.26
2018-07-19T11:45:04.099Z,30.30
2018-07-19T11:46:04.185Z,30.38
2018-07-19T11:47:04.173Z,30.45
2018-07-19T11:48:10.020Z,30.50
2018-07-19T11:49:04.222Z,30.59
2018-07-19T11:50:05.339Z,30.57
2018-07-19T11:51:04.242Z,30.45
2018-07-19T11:52:04.304Z,30.43
2018-07-19T11:53:04.289Z,30.38
2018-07-19T11:54:04.426Z,30.46
2018-07-19T11:55:04.342Z,30.37
2018-07-19T11:56:04.437Z,30.43
2018-07-19T11:57:04.369Z,30.50
2018-07-19T11:58:04.459Z,30.59
2018-07-19T11:59:04.410Z,30.53
2018-07-19T12:00:04.434Z,30.61
2018-07-19T12:01:04.467Z,30.56
2018-07-19T12:02:04.582Z,30.52
2018-07-19T12:03:04.498Z,30.62
2018-07-19T12:04:04.585Z,30.72
2018-07-19T12:05:04.550Z,30.81
2018-07-19T12:06:04.727Z,31.01
2018-07-19T12:07:04.607Z,31.01
2018-07-19T12:08:04.645Z,31.09
2018-07-19T12:09:04.756Z,31.11
2018-07-19T12:10:04.757Z,31.17
2018-07-19T12:11:04.692Z,31.13
2018-07-19T12:12:04.863Z,31.26
2018-07-19T12:13:04.775Z,31.30
2018-07-19T12:14:05.332Z,31.36
2018-07-19T12:15:04.829Z,31.33
2018-07-19T12:16:04.877Z,31.36
2018-07-19T12:17:04.833Z,31.46
2018-07-19T12:18:04.981Z,31.48
2018-07-19T12:19:04.956Z,31.46
2018-07-19T12:20:05.016Z,31.55
2018-07-19T12:21:04.930Z,31.54
2018-07-19T12:22:05.049Z,31.64
2018-07-19T12:23:04.963Z,31.64
2018-07-19T12:24:05.024Z,31.60
2018-07-19T12:25:06.838Z,31.62
2018-07-19T12:26:05.134Z,31.72
2018-07-19T12:27:05.169Z,31.77
2018-07-19T12:28:05.089Z,31.72
2018-07-19T12:29:05.285Z,31.64
2018-07-19T12:30:05.137Z,31.49
2018-07-19T12:31:05.308Z,31.40
2018-07-19T12:32:05.193Z,31.39
2018-07-19T12:33:05.306Z,31.23
2018-07-19T12:34:05.232Z,31.36
2018-07-19T12:35:05.426Z,31.36
2018-07-19T12:36:05.274Z,31.23
2018-07-19T12:37:05.308Z,31.06
2018-07-19T12:38:05.445Z,30.96
2018-07-19T12:39:05.352Z,30.98
2018-07-19T12:40:06.475Z,31.01
2018-07-19T12:41:05.406Z,30.94
2018-07-19T12:42:05.554Z,30.94
2018-07-19T12:43:05.448Z,30.75
2018-07-19T12:44:05.612Z,30.80
2018-07-19T12:45:05.509Z,30.68
2018-07-19T12:46:05.515Z,30.56
2018-07-19T12:47:05.533Z,30.43
2018-07-19T12:48:05.711Z,30.43
2018-07-19T12:49:05.604Z,30.50
2018-07-19T12:50:05.613Z,30.53
2018-07-19T12:51:05.703Z,30.54
2018-07-19T12:52:05.690Z,30.53
2018-07-19T12:53:05.691Z,30.36
2018-07-19T12:54:05.695Z,30.37